createdAt,value
2022-07-30T00:00:52.709Z,24.04
2022-07-30T00:03:23.480Z,24.13
2022-07-30T00:05:54.945Z,24.16
2022-07-30T00:08:27.401Z,24.20
2022-07-30T00:10:57.910Z,24.22
2022-07-30T00:13:28.756Z,24.15
2022-07-30T00:15:59.319Z,24.20
2022-07-30T00:18:30.931Z,24.16
2022-07-30T00:21:01.347Z,24.14
2022-07-30T00:23:32.582Z,24.18
2022-07-30T00:26:03.327Z,24.21
2022-07-30T00:28:34.453Z,24.29
2022-07-30T00:31:04.878Z,24.28
2022-07-30T00:33:35.944Z,24.24
2022-07-30T00:36:06.721Z,24.21
2022-07-30T00:38:37.415Z,24.31
2022-07-30T00:41:08.030Z,24.32
2022-07-30T00:43:39.141Z,24.28
2022-07-30T00:46:09.692Z,24.24
2022-07-30T00:48:41.018Z,24.25
2022-07-30T00:51:11.475Z,24.22
2022-07-30T00:53:42.530Z,24.28
2022-07-30T00:56:12.882Z,24.27
2022-07-30T00:58:43.942Z,24.33
2022-07-30T01:01:14.389Z,24.44
2022-07-30T01:03:45.375Z,24.58
2022-07-30T01:06:15.882Z,24.68
2022-07-30T01:08:46.966Z,24.80
2022-07-30T01:11:17.899Z,24.87
2022-07-30T01:13:48.950Z,24.87
2022-07-30T01:16:19.543Z,24.88
2022-07-30T01:19:08.996Z,24.75
2022-07-30T01:21:40.896Z,24.62
2022-07-30T01:24:22.319Z,24.59
2022-07-30T01:26:53.033Z,24.73
2022-07-30T01:29:24.558Z,24.71
2022-07-30T01:31:59.769Z,24.67
2022-07-30T01:34:32.612Z,24.58
2022-07-30T01:37:03.902Z,24.56
2022-07-30T01:39:35.752Z,24.41
2022-07-30T01:42:08.841Z,24.48
2022-07-30T01:44:40.803Z,24.56
2022-07-30T01:47:13.072Z,24.61
2022-07-30T01:49:45.710Z,24.63
2022-07-30T01:52:18.232Z,24.64
2022-07-30T01:54:51.522Z,24.62
2022-07-30T01:57:20.303Z,24.71
2022-07-30T01:59:53.687Z,24.59
2022-07-30T02:02:25.572Z,24.63
2022-07-30T02:04:56.700Z,24.67
2022-07-30T02:07:29.484Z,24.67
2022-07-30T02:10:05.440Z,24.60
2022-07-30T02:12:43.484Z,24.52
2022-07-30T02:15:16.481Z,24.53
2022-07-30T02:17:51.466Z,24.48
2022-07-30T02:20:25.241Z,24.53
2022-07-30T02:23:02.306Z,24.60
2022-07-30T02:25:34.494Z,24.63
2022-07-30T02:28:07.232Z,24.51
2022-07-30T02:30:39.013Z,24.38
2022-07-30T02:33:10.852Z,24.24
2022-07-30T02:35:41.952Z,24.21
2022-07-30T02:38:14.107Z,24.14
2022-07-30T02:40:46.286Z,24.16
2022-07-30T02:43:17.062Z,24.27
2022-07-30T02:45:48.226Z,24.35
2022-07-30T02:48:35.138Z,24.32
2022-07-30T02:51:08.618Z,24.20
2022-07-30T02:53:39.614Z,24.24
2022-07-30T02:56:11.375Z,24.25
2022-07-30T02:58:42.308Z,24.40
2022-07-30T03:01:15.173Z,24.48
2022-07-30T03:03:46.438Z,24.47
2022-07-30T03:06:17.354Z,24.52
2022-07-30T03:08:48.107Z,24.57
2022-07-30T03:11:20.258Z,24.59
2022-07-30T03:13:51.638Z,24.55
2022-07-30T03:16:23.606Z,24.53
2022-07-30T03:18:54.564Z,24.59
2022-07-30T03:21:27.249Z,24.54
2022-07-30T03:23:58.511Z,24.52
2022-07-30T03:26:29.904Z,24.54
2022-07-30T03:29:00.712Z,24.43
2022-07-30T03:31:36.439Z,24.50
2022-07-30T03:34:10.290Z,24.61
2022-07-30T03:36:43.891Z,24.40
2022-07-30T03:39:14.866Z,24.35
2022-07-30T03:41:45.815Z,24.24
2022-07-30T03:44:18.142Z,24.22
2022-07-30T03:46:50.820Z,24.26
2022-07-30T03:49:21.819Z,24.26
2022-07-30T03:51:53.818Z,24.29
2022-07-30T03:54:24.667Z,24.36
2022-07-30T03:57:20.381Z,24.47
2022-07-30T03:59:52.885Z,24.55
2022-07-30T04:02:25.127Z,24.69
2022-07-30T04:05:07.994Z,24.75
2022-07-30T04:07:41.320Z,24.61
2022-07-30T04:10:16.916Z,24.70
2022-07-30T04:13:06.609Z,24.63
2022-07-30T04:16:37.717Z,24.76
2022-07-30T04:18:39.040Z,24.79
2022-07-30T04:21:17.036Z,24.81
2022-07-30T04:24:01.845Z,24.86
2022-07-30T04:26:35.895Z,24.92
2022-07-30T04:29:08.376Z,24.95
2022-07-30T04:31:41.180Z,25.02
2022-07-30T04:34:38.074Z,25.01
2022-07-30T04:37:09.983Z,24.99
2022-07-30T04:39:40.917Z,24.91
2022-07-30T04:42:11.721Z,24.92
2022-07-30T04:44:43.414Z,24.94
2022-07-30T04:47:31.144Z,24.92
2022-07-30T04:50:28.706Z,24.97
2022-07-30T04:52:59.693Z,25.01
2022-07-30T04:55:34.376Z,24.91
2022-07-30T04:58:05.307Z,24.86
2022-07-30T05:00:41.156Z,24.81
2022-07-30T05:03:15.685Z,24.91
2022-07-30T05:05:53.006Z,24.89
2022-07-30T05:08:28.465Z,24.88
2022-07-30T05:11:03.147Z,24.79
2022-07-30T05:13:38.108Z,24.69
2022-07-30T05:16:12.889Z,24.82
2022-07-30T05:18:43.990Z,24.88
2022-07-30T05:21:15.061Z,24.82
2022-07-30T05:23:51.143Z,24.77
2022-07-30T05:26:32.758Z,24.72
2022-07-30T05:29:06.996Z,24.74
2022-07-30T05:31:49.659Z,24.92
2022-07-30T05:34:20.741Z,25.06
2022-07-30T05:36:51.742Z,25.08
2022-07-30T05:39:22.751Z,25.02
2022-07-30T05:41:56.479Z,24.96
2022-07-30T05:44:49.852Z,25.03
2022-07-30T05:47:22.721Z,24.99
2022-07-30T05:49:54.658Z,25.04
2022-07-30T05:52:25.630Z,25.15
2022-07-30T05:55:00.716Z,25.26
2022-07-30T05:58:03.853Z,25.30
2022-07-30T06:00:35.787Z,25.09
2022-07-30T06:03:06.756Z,25.09
2022-07-30T06:06:19.704Z,24.93
2022-07-30T06:08:53.586Z,24.95
2022-07-30T06:11:24.420Z,24.98
2022-07-30T06:13:55.397Z,25.04
2022-07-30T06:16:26.111Z,25.10
2022-07-30T06:18:57.028Z,25.25
2022-07-30T06:22:05.460Z,25.39
2022-07-30T06:24:34.230Z,25.59
2022-07-30T06:27:12.549Z,25.78
2022-07-30T06:29:44.235Z,25.78
2022-07-30T06:32:15.652Z,25.71
2022-07-30T06:34:46.585Z,25.74
2022-07-30T06:37:17.375Z,25.84
2022-07-30T06:39:58.032Z,25.82
2022-07-30T06:42:47.663Z,25.72
2022-07-30T06:45:39.882Z,25.69
2022-07-30T06:48:23.634Z,25.65
2022-07-30T06:50:56.012Z,25.69
2022-07-30T06:53:27.053Z,25.83
2022-07-30T06:56:16.668Z,25.88
2022-07-30T06:58:51.247Z,25.99
2022-07-30T07:01:42.196Z,26.17
2022-07-30T07:04:13.028Z,26.27
2022-07-30T07:06:43.932Z,26.40
2022-07-30T07:09:16.885Z,26.55
2022-07-30T07:11:52.502Z,26.58
2022-07-30T07:14:23.396Z,26.66
2022-07-30T07:16:54.391Z,26.73
2022-07-30T07:20:01.736Z,26.71
2022-07-30T07:22:37.787Z,26.79
2022-07-30T07:25:09.471Z,26.10
2022-07-30T07:27:40.072Z,25.36
2022-07-30T07:30:11.251Z,25.75
2022-07-30T07:32:42.151Z,26.21
2022-07-30T07:35:15.556Z,26.51
2022-07-30T07:37:49.135Z,26.70
2022-07-30T07:40:25.625Z,26.85
2022-07-30T07:42:56.660Z,27.00
2022-07-30T07:45:27.390Z,27.10
2022-07-30T07:48:04.479Z,26.55
2022-07-30T07:50:48.159Z,25.57
2022-07-30T07:53:26.623Z,25.15
2022-07-30T07:55:57.264Z,25.81
2022-07-30T07:58:29.448Z,26.34
2022-07-30T08:01:03.462Z,26.66
2022-07-30T08:03:54.232Z,26.78
2022-07-30T08:06:43.340Z,26.88
2022-07-30T08:09:40.672Z,26.11
2022-07-30T08:12:44.870Z,25.05
2022-07-30T08:15:34.555Z,25.41
2022-07-30T08:18:24.165Z,26.18
2022-07-30T08:21:06.326Z,26.69
2022-07-30T08:23:42.398Z,27.04
2022-07-30T08:26:13.730Z,26.31
2022-07-30T08:28:45.995Z,25.51
2022-07-30T08:31:17.552Z,25.85
2022-07-30T08:33:49.310Z,26.13
2022-07-30T08:36:24.113Z,26.26
2022-07-30T08:38:57.064Z,26.61
2022-07-30T08:41:29.392Z,26.83
2022-07-30T08:44:02.070Z,27.05
2022-07-30T08:46:33.418Z,27.21
2022-07-30T08:49:12.859Z,27.33
2022-07-30T08:51:44.251Z,27.36
2022-07-30T08:54:52.913Z,26.54
2022-07-30T08:57:24.286Z,25.93
2022-07-30T09:00:00.386Z,25.74
2022-07-30T09:02:33.326Z,26.57
2022-07-30T09:05:08.885Z,27.28
2022-07-30T09:07:39.700Z,27.26
2022-07-30T09:10:12.835Z,26.60
2022-07-30T09:12:44.893Z,26.05
2022-07-30T09:15:16.815Z,25.65
2022-07-30T09:17:51.848Z,25.39
2022-07-30T09:20:23.501Z,25.53
2022-07-30T09:22:55.238Z,26.61
2022-07-30T09:25:44.835Z,27.42
2022-07-30T09:28:35.534Z,26.97
2022-07-30T09:31:18.917Z,26.30
2022-07-30T09:34:24.480Z,25.86
2022-07-30T09:37:05.029Z,25.65
2022-07-30T09:39:59.151Z,25.89
2022-07-30T09:42:50.396Z,27.16
2022-07-30T09:45:21.414Z,27.79
2022-07-30T09:47:52.351Z,27.40
2022-07-30T09:50:30.058Z,26.88
2022-07-30T09:53:08.907Z,26.49
2022-07-30T09:55:42.304Z,26.14
2022-07-30T09:58:20.001Z,25.97
2022-07-30T10:01:00.640Z,25.85
2022-07-30T10:04:00.301Z,25.76
2022-07-30T10:06:50.221Z,25.69
2022-07-30T10:09:30.481Z,25.62
2022-07-30T10:12:02.987Z,26.34
2022-07-30T10:14:35.330Z,27.51
2022-07-30T10:17:14.610Z,27.63
2022-07-30T10:19:49.356Z,27.16
2022-07-30T10:22:55.448Z,26.77
2022-07-30T10:25:49.049Z,26.59
2022-07-30T10:28:44.713Z,26.47
2022-07-30T10:31:47.071Z,26.43
2022-07-30T10:34:08.134Z,26.43
2022-07-30T10:36:39.158Z,26.46
2022-07-30T10:39:11.122Z,26.49
2022-07-30T10:41:48.520Z,26.53
2022-07-30T10:44:39.188Z,26.52
2022-07-30T10:47:14.365Z,26.49
2022-07-30T10:50:05.040Z,26.39
2022-07-30T10:52:52.270Z,26.29
2022-07-30T10:55:37.147Z,26.21
2022-07-30T10:58:10.596Z,26.08
2022-07-30T11:00:55.316Z,26.02
2022-07-30T11:03:40.464Z,26.98
2022-07-30T11:06:29.516Z,27.94
2022-07-30T11:09:00.057Z,27.65
2022-07-30T11:12:05.447Z,27.33
2022-07-30T11:14:55.696Z,27.04
2022-07-30T11:17:26.933Z,26.94
2022-07-30T11:20:13.635Z,26.96
2022-07-30T11:22:45.160Z,26.96
2022-07-30T11:25:50.114Z,26.87
2022-07-30T11:28:45.542Z,26.80
2022-07-30T11:31:30.696Z,26.76
2022-07-30T11:34:30.567Z,26.72
2022-07-30T11:37:18.566Z,26.66
2022-07-30T11:40:14.895Z,26.62
2022-07-30T11:42:45.288Z,26.61
2022-07-30T11:45:33.255Z,26.59
2022-07-30T11:48:10.489Z,26.55
2022-07-30T11:50:42.303Z,26.55
2022-07-30T11:53:19.686Z,26.61
2022-07-30T11:55:53.903Z,26.66
2022-07-30T11:58:30.885Z,26.69
2022-07-30T12:01:09.041Z,26.92
2022-07-30T12:03:42.986Z,27.99
2022-07-30T12:06:18.545Z,28.12
2022-07-30T12:08:51.202Z,27.75
2022-07-30T12:11:22.683Z,27.57
2022-07-30T12:13:59.969Z,27.51
2022-07-30T12:16:32.202Z,27.49
2022-07-30T12:19:04.676Z,27.42
2022-07-30T12:21:33.737Z,27.46
2022-07-30T12:24:07.675Z,27.71
2022-07-30T12:26:38.647Z,27.91
2022-07-30T12:29:13.294Z,27.90
2022-07-30T12:31:46.571Z,27.85
2022-07-30T12:34:24.228Z,27.73
2022-07-30T12:36:55.297Z,27.55
2022-07-30T12:39:26.957Z,27.40
2022-07-30T12:41:57.681Z,27.22
2022-07-30T12:44:38.763Z,27.06
2022-07-30T12:47:20.633Z,26.89
2022-07-30T12:49:51.763Z,26.73
2022-07-30T12:52:27.550Z,26.59
2022-07-30T12:55:00.440Z,26.43
2022-07-30T12:57:51.241Z,26.27
2022-07-30T13:00:22.170Z,26.12
2022-07-30T13:02:52.810Z,26.35
2022-07-30T13:05:43.023Z,27.42
2022-07-30T13:08:13.723Z,27.78
2022-07-30T13:10:56.530Z,27.33
2022-07-30T13:13:31.369Z,26.85
2022-07-30T13:16:03.020Z,26.54
2022-07-30T13:18:34.581Z,26.22
2022-07-30T13:21:07.158Z,27.27
2022-07-30T13:23:39.230Z,26.62
2022-07-30T13:26:09.974Z,25.57
2022-07-30T13:28:41.410Z,26.07
2022-07-30T13:31:12.000Z,26.91
2022-07-30T13:33:43.078Z,26.84
2022-07-30T13:36:13.816Z,26.54
2022-07-30T13:38:45.261Z,26.10
2022-07-30T13:41:23.161Z,26.08
2022-07-30T13:43:53.799Z,25.88
2022-07-30T13:46:24.333Z,25.85
2022-07-30T13:48:55.460Z,26.18
2022-07-30T13:51:26.194Z,26.75
2022-07-30T13:53:57.028Z,26.60
2022-07-30T13:56:27.564Z,26.19
2022-07-30T13:58:58.289Z,26.26
2022-07-30T14:01:29.044Z,26.86
2022-07-30T14:03:59.655Z,26.75
2022-07-30T14:06:30.432Z,27.01
2022-07-30T14:09:01.168Z,26.95
2022-07-30T14:11:32.032Z,26.67
2022-07-30T14:14:03.094Z,26.19
2022-07-30T14:16:45.176Z,25.73
2022-07-30T14:19:23.380Z,25.95
2022-07-30T14:21:55.166Z,26.08
2022-07-30T14:24:26.083Z,26.04
2022-07-30T14:26:58.325Z,26.29
2022-07-30T14:29:29.214Z,26.68
2022-07-30T14:32:00.239Z,26.68
2022-07-30T14:34:31.598Z,26.97
2022-07-30T14:37:03.000Z,27.05
2022-07-30T14:39:33.830Z,26.71
2022-07-30T14:42:06.471Z,26.52
2022-07-30T14:44:35.754Z,26.57
2022-07-30T14:47:06.963Z,26.38
2022-07-30T14:49:37.782Z,26.27
2022-07-30T14:52:08.420Z,26.30
2022-07-30T14:54:38.944Z,26.65
2022-07-30T14:57:10.214Z,26.99
2022-07-30T14:59:41.076Z,26.51
2022-07-30T15:02:11.739Z,26.56
2022-07-30T15:04:42.788Z,26.75
2022-07-30T15:07:13.580Z,26.60
2022-07-30T15:09:44.378Z,26.93
2022-07-30T15:12:23.403Z,26.97
2022-07-30T15:14:57.766Z,25.69
2022-07-30T15:17:28.301Z,25.79
2022-07-30T15:20:00.871Z,25.83
2022-07-30T15:22:31.753Z,25.75
2022-07-30T15:25:02.493Z,25.91
2022-07-30T15:27:34.372Z,25.95
2022-07-30T15:30:06.061Z,25.95
2022-07-30T15:32:37.310Z,25.92
2022-07-30T15:35:13.147Z,26.05
2022-07-30T15:37:44.348Z,26.01
2022-07-30T15:40:15.336Z,26.27
2022-07-30T15:42:46.271Z,26.67
2022-07-30T15:45:18.516Z,27.03
2022-07-30T15:47:49.326Z,26.33
2022-07-30T15:50:20.758Z,26.59
2022-07-30T15:52:51.419Z,26.40
2022-07-30T15:55:21.989Z,26.70
2022-07-30T15:57:52.614Z,27.07
2022-07-30T16:00:23.453Z,26.66
2022-07-30T16:02:56.370Z,26.85
2022-07-30T16:05:27.169Z,26.88
2022-07-30T16:08:18.082Z,26.54
2022-07-30T16:10:48.814Z,26.28
2022-07-30T16:13:19.442Z,26.56
2022-07-30T16:15:50.188Z,26.91
2022-07-30T16:18:21.017Z,26.83
2022-07-30T16:20:51.949Z,26.42
2022-07-30T16:23:22.507Z,26.00
2022-07-30T16:25:53.100Z,26.16
2022-07-30T16:28:23.693Z,25.90
2022-07-30T16:30:54.423Z,25.99
2022-07-30T16:33:25.206Z,26.04
2022-07-30T16:35:56.077Z,26.45
2022-07-30T16:38:26.884Z,26.47
2022-07-30T16:40:58.364Z,26.61
2022-07-30T16:43:31.942Z,26.69
2022-07-30T16:46:03.278Z,26.07
2022-07-30T16:48:33.842Z,26.16
2022-07-30T16:51:05.188Z,25.84
2022-07-30T16:53:35.990Z,25.77
2022-07-30T16:56:06.918Z,25.45
2022-07-30T16:58:37.610Z,25.61
2022-07-30T17:01:09.707Z,25.71
2022-07-30T17:03:40.293Z,25.49
2022-07-30T17:06:11.396Z,25.07
2022-07-30T17:08:41.916Z,24.97
2022-07-30T17:11:47.124Z,24.73
2022-07-30T17:14:03.458Z,24.80
2022-07-30T17:16:34.496Z,25.10
2022-07-30T17:19:09.412Z,25.42
2022-07-30T17:21:40.705Z,25.44
2022-07-30T17:24:13.681Z,24.91
2022-07-30T17:26:44.797Z,24.59
2022-07-30T17:29:15.936Z,24.37
2022-07-30T17:31:47.125Z,24.09
2022-07-30T17:34:20.589Z,24.42
2022-07-30T17:36:53.218Z,24.67
2022-07-30T17:40:26.471Z,24.72
2022-07-30T17:42:15.217Z,25.38
2022-07-30T17:44:45.735Z,25.02
2022-07-30T17:47:16.691Z,24.54
2022-07-30T17:49:47.202Z,25.02
2022-07-30T17:52:17.941Z,24.81
2022-07-30T17:54:48.264Z,25.01
2022-07-30T17:57:21.451Z,25.21
2022-07-30T17:59:51.883Z,25.31
2022-07-30T18:02:28.733Z,25.11
2022-07-30T18:04:59.707Z,24.65
2022-07-30T18:07:31.043Z,24.87
2022-07-30T18:10:01.883Z,25.00
2022-07-30T18:12:33.018Z,25.16
2022-07-30T18:15:04.880Z,25.67
2022-07-30T18:17:35.713Z,25.70
2022-07-30T18:20:07.431Z,25.12
2022-07-30T18:22:38.312Z,25.28
2022-07-30T18:25:18.724Z,24.93
2022-07-30T18:27:51.488Z,25.10
2022-07-30T18:30:21.952Z,24.32
2022-07-30T18:32:52.812Z,24.46
2022-07-30T18:35:23.244Z,24.76
2022-07-30T18:37:54.686Z,24.93
2022-07-30T18:40:25.292Z,24.29
2022-07-30T18:42:55.952Z,24.15
2022-07-30T18:45:28.686Z,24.50
2022-07-30T18:47:59.696Z,24.60
2022-07-30T18:50:30.452Z,24.39
2022-07-30T18:53:01.345Z,24.02
2022-07-30T18:55:46.613Z,23.90
2022-07-30T18:58:17.510Z,23.58
2022-07-30T19:00:47.992Z,23.78
2022-07-30T19:03:23.005Z,23.93
2022-07-30T19:05:54.717Z,23.85
2022-07-30T19:08:25.405Z,23.87
2022-07-30T19:10:55.934Z,23.87
2022-07-30T19:13:27.081Z,23.82
2022-07-30T19:15:57.608Z,24.21
2022-07-30T19:18:28.403Z,24.10
2022-07-30T19:20:58.971Z,24.30
2022-07-30T19:23:30.109Z,24.52
2022-07-30T19:26:00.570Z,24.53
2022-07-30T19:28:33.617Z,24.45
2022-07-30T19:31:05.141Z,24.39
2022-07-30T19:33:35.835Z,24.58
2022-07-30T19:36:06.634Z,24.42
2022-07-30T19:38:40.268Z,24.30
2022-07-30T19:41:11.383Z,24.20
2022-07-30T19:43:58.074Z,24.00
2022-07-30T19:46:29.230Z,23.95
2022-07-30T19:49:00.617Z,23.98
2022-07-30T19:52:09.825Z,24.11
2022-07-30T19:54:22.253Z,24.26
2022-07-30T19:56:53.300Z,24.14
2022-07-30T19:59:45.587Z,24.31
2022-07-30T20:02:15.822Z,24.11
2022-07-30T20:04:46.787Z,24.55
2022-07-30T20:07:17.757Z,24.60
2022-07-30T20:09:49.184Z,24.53
2022-07-30T20:12:19.622Z,24.45
2022-07-30T20:14:55.420Z,24.59
2022-07-30T20:17:27.364Z,24.33
2022-07-30T20:19:59.444Z,24.48
2022-07-30T20:22:30.225Z,24.56
2022-07-30T20:25:03.062Z,24.67
2022-07-30T20:27:36.481Z,24.45
2022-07-30T20:30:10.622Z,24.55
2022-07-30T20:32:46.260Z,24.56
2022-07-30T20:35:19.985Z,24.74
2022-07-30T20:37:55.380Z,24.50
2022-07-30T20:40:27.308Z,24.02
2022-07-30T20:42:57.743Z,24.50
2022-07-30T20:45:40.373Z,24.33
2022-07-30T20:48:17.288Z,24.20
2022-07-30T20:50:56.585Z,23.57
2022-07-30T20:53:33.708Z,23.60
2022-07-30T20:56:08.086Z,23.93
2022-07-30T20:58:38.507Z,23.74
2022-07-30T21:01:17.293Z,24.16
2022-07-30T21:03:48.971Z,24.33
2022-07-30T21:06:19.998Z,23.33
2022-07-30T21:08:53.164Z,23.89
2022-07-30T21:11:26.900Z,23.41
2022-07-30T21:13:57.593Z,23.64
2022-07-30T21:16:30.768Z,23.51
2022-07-30T21:18:59.534Z,23.78
2022-07-30T21:21:41.593Z,23.91
2022-07-30T21:24:15.534Z,23.85
2022-07-30T21:26:48.997Z,23.83
2022-07-30T21:29:19.761Z,23.70
2022-07-30T21:32:01.985Z,23.92
2022-07-30T21:34:40.379Z,23.26
2022-07-30T21:37:15.718Z,23.31
2022-07-30T21:39:44.824Z,23.72
2022-07-30T21:42:15.571Z,23.72
2022-07-30T21:44:46.074Z,23.29
2022-07-30T21:47:17.321Z,22.95
2022-07-30T21:49:48.165Z,23.20
2022-07-30T21:52:19.681Z,23.06
2022-07-30T21:54:50.394Z,23.47
2022-07-30T21:57:23.229Z,23.63
2022-07-30T21:59:57.281Z,23.06
2022-07-30T22:02:28.728Z,23.10
2022-07-30T22:04:59.254Z,23.00
2022-07-30T22:07:30.263Z,23.53
2022-07-30T22:10:02.014Z,23.35
2022-07-30T22:12:32.895Z,23.61
2022-07-30T22:15:06.783Z,23.01
2022-07-30T22:17:58.373Z,22.84
2022-07-30T22:20:29.978Z,23.72
2022-07-30T22:23:02.240Z,23.38
2022-07-30T22:25:41.629Z,23.39
2022-07-30T22:28:15.339Z,22.70
2022-07-30T22:30:47.093Z,23.00
2022-07-30T22:33:18.378Z,23.36
2022-07-30T22:35:50.504Z,23.33
2022-07-30T22:38:21.323Z,23.62
2022-07-30T22:40:52.690Z,23.42
2022-07-30T22:43:24.345Z,23.15
2022-07-30T22:46:03.878Z,23.40
2022-07-30T22:48:45.696Z,23.46
2022-07-30T22:51:18.803Z,23.28
2022-07-30T22:54:10.511Z,23.52
2022-07-30T22:56:40.455Z,22.92
2022-07-30T22:59:11.648Z,22.63
2022-07-30T23:01:43.643Z,23.05
2022-07-30T23:04:15.125Z,22.96
2022-07-30T23:06:45.513Z,22.55
2022-07-30T23:09:18.168Z,22.92
2022-07-30T23:11:49.927Z,23.00
2022-07-30T23:14:21.195Z,22.75
2022-07-30T23:16:51.632Z,22.39
2022-07-30T23:19:22.522Z,23.06
2022-07-30T23:21:52.852Z,22.00
2022-07-30T23:24:23.789Z,22.94
2022-07-30T23:26:54.121Z,22.43
2022-07-30T23:29:25.141Z,21.95
2022-07-30T23:31:55.537Z,22.41
2022-07-30T23:34:26.958Z,22.46
2022-07-30T23:36:57.655Z,23.00
2022-07-30T23:39:28.867Z,22.15
2022-07-30T23:41:59.329Z,22.23
2022-07-30T23:44:33.245Z,22.49
2022-07-30T23:47:05.979Z,23.03
2022-07-30T23:49:36.867Z,22.48
2022-07-30T23:52:07.468Z,22.42
2022-07-30T23:54:38.009Z,22.70
2022-07-30T23:57:08.274Z,22.38
2022-07-30T23:59:41.668Z,22.34
